sensor_id;sensor_type;location;lat;lon;timestamp;pressure;altitude;pressure_sealevel;temperature
39959;BMP280;25639;53.634;9.880;2022-11-28T00:03:41;153401.06;;;4.19
39959;BMP280;25639;53.634;9.880;2022-11-28T00:06:07;153399.81;;;4.19
39959;BMP280;25639;53.634;9.880;2022-11-28T00:08:33;153421.41;;;4.28
39959;BMP280;25639;53.634;9.880;2022-11-28T00:11:01;153387.13;;;4.14
39959;BMP280;25639;53.634;9.880;2022-11-28T00:13:27;153392.19;;;4.16
39959;BMP280;25639;53.634;9.880;2022-11-28T00:15:55;153402.34;;;4.20
39959;BMP280;25639;53.634;9.880;2022-11-28T00:18:21;153404.91;;;4.21
39959;BMP280;25639;53.634;9.880;2022-11-28T00:20:46;153378.22;;;4.10
39959;BMP280;25639;53.634;9.880;2022-11-28T00:23:11;153393.44;;;4.16
39959;BMP280;25639;53.634;9.880;2022-11-28T00:25:36;153394.75;;;4.17
39959;BMP280;25639;53.634;9.880;2022-11-28T00:28:01;153385.84;;;4.13
39959;BMP280;25639;53.634;9.880;2022-11-28T00:30:26;153384.56;;;4.13
39959;BMP280;25639;53.634;9.880;2022-11-28T00:32:52;153427.75;;;4.30
39959;BMP280;25639;53.634;9.880;2022-11-28T00:35:17;153394.75;;;4.17
39959;BMP280;25639;53.634;9.880;2022-11-28T00:37:42;153411.22;;;4.24
39959;BMP280;25639;53.634;9.880;2022-11-28T00:40:07;153392.19;;;4.16
39959;BMP280;25639;53.634;9.880;2022-11-28T00:42:32;153379.47;;;4.11
39959;BMP280;25639;53.634;9.880;2022-11-28T00:44:58;153387.13;;;4.14
39959;BMP280;25639;53.634;9.880;2022-11-28T00:47:23;153384.56;;;4.13
39959;BMP280;25639;53.634;9.880;2022-11-28T00:49:48;153380.75;;;4.11
39959;BMP280;25639;53.634;9.880;2022-11-28T00:52:13;153403.63;;;4.20
39959;BMP280;25639;53.634;9.880;2022-11-28T00:54:38;153392.19;;;4.16
39959;BMP280;25639;53.634;9.880;2022-11-28T00:57:04;153403.63;;;4.20
39959;BMP280;25639;53.634;9.880;2022-11-28T00:59:29;153370.59;;;4.07
39959;BMP280;25639;53.634;9.880;2022-11-28T01:01:54;153384.56;;;4.13
39959;BMP280;25639;53.634;9.880;2022-11-28T01:04:19;153369.34;;;4.07
39959;BMP280;25639;53.634;9.880;2022-11-28T01:06:46;153349.00;;;3.98
39959;BMP280;25639;53.634;9.880;2022-11-28T01:09:13;153373.16;;;4.08
39959;BMP280;25639;53.634;9.880;2022-11-28T01:11:39;153365.53;;;4.05
39959;BMP280;25639;53.634;9.880;2022-11-28T01:14:04;153368.09;;;4.06
39959;BMP280;25639;53.634;9.880;2022-11-28T01:16:29;153357.91;;;4.02
39959;BMP280;25639;53.634;9.880;2022-11-28T01:18:55;153343.94;;;3.96
39959;BMP280;25639;53.634;9.880;2022-11-28T01:21:20;153327.41;;;3.90
39959;BMP280;25639;53.634;9.880;2022-11-28T01:23:46;153336.31;;;3.93
39959;BMP280;25639;53.634;9.880;2022-11-28T01:26:14;153329.97;;;3.91
39959;BMP280;25639;53.634;9.880;2022-11-28T01:28:40;153336.31;;;3.93
39959;BMP280;25639;53.634;9.880;2022-11-28T01:31:05;153331.22;;;3.91
39959;BMP280;25639;53.634;9.880;2022-11-28T01:33:31;153324.91;;;3.89
39959;BMP280;25639;53.634;9.880;2022-11-28T01:35:57;153328.72;;;3.90
39959;BMP280;25639;53.634;9.880;2022-11-28T01:38:22;153313.47;;;3.84
39959;BMP280;25639;53.634;9.880;2022-11-28T01:40:48;153324.91;;;3.89
39959;BMP280;25639;53.634;9.880;2022-11-28T01:43:13;153318.53;;;3.86
39959;BMP280;25639;53.634;9.880;2022-11-28T01:45:39;153316.03;;;3.85
39959;BMP280;25639;53.634;9.880;2022-11-28T01:48:04;153312.22;;;3.84
39959;BMP280;25639;53.634;9.880;2022-11-28T01:50:30;153305.88;;;3.81
39959;BMP280;25639;53.634;9.880;2022-11-28T01:52:58;153293.19;;;3.76
39959;BMP280;25639;53.634;9.880;2022-11-28T01:55:25;153298.25;;;3.78
39959;BMP280;25639;53.634;9.880;2022-11-28T01:57:51;153309.66;;;3.82
39959;BMP280;25639;53.634;9.880;2022-11-28T02:00:18;153291.88;;;3.75
39959;BMP280;25639;53.634;9.880;2022-11-28T02:02:45;153290.63;;;3.75
39959;BMP280;25639;53.634;9.880;2022-11-28T02:05:11;153300.75;;;3.79
39959;BMP280;25639;53.634;9.880;2022-11-28T02:07:37;153300.75;;;3.79
39959;BMP280;25639;53.634;9.880;2022-11-28T02:10:03;153300.75;;;3.79
39959;BMP280;25639;53.634;9.880;2022-11-28T02:15:27;153290.63;;;3.75
39959;BMP280;25639;53.634;9.880;2022-11-28T02:20:31;153288.09;;;3.74
39959;BMP280;25639;53.634;9.880;2022-11-28T02:23:14;153294.44;;;3.76
39959;BMP280;25639;53.634;9.880;2022-11-28T02:40:53;153308.41;;;3.82
39959;BMP280;25639;53.634;9.880;2022-11-28T02:43:39;153291.88;;;3.75
39959;BMP280;25639;53.634;9.880;2022-11-28T02:46:12;153305.88;;;3.81
39959;BMP280;25639;53.634;9.880;2022-11-28T02:48:48;153324.91;;;3.89
39959;BMP280;25639;53.634;9.880;2022-11-28T02:51:24;153324.91;;;3.89
39959;BMP280;25639;53.634;9.880;2022-11-28T02:53:52;153328.72;;;3.90
39959;BMP280;25639;53.634;9.880;2022-11-28T02:56:17;153336.31;;;3.93
39959;BMP280;25639;53.634;9.880;2022-11-28T02:58:43;153316.03;;;3.85
39959;BMP280;25639;53.634;9.880;2022-11-28T03:01:15;153326.16;;;3.89
39959;BMP280;25639;53.634;9.880;2022-11-28T03:03:45;153316.03;;;3.85
39959;BMP280;25639;53.634;9.880;2022-11-28T03:06:34;153327.41;;;3.90
39959;BMP280;25639;53.634;9.880;2022-11-28T03:16:45;153309.66;;;3.82
39959;BMP280;25639;53.634;9.880;2022-11-28T03:19:29;153324.91;;;3.89
39959;BMP280;25639;53.634;9.880;2022-11-28T03:24:34;153326.16;;;3.89
39959;BMP280;25639;53.634;9.880;2022-11-28T03:27:04;153322.34;;;3.88
39959;BMP280;25639;53.634;9.880;2022-11-28T03:29:33;153316.03;;;3.85
39959;BMP280;25639;53.634;9.880;2022-11-28T03:32:11;153332.53;;;3.92
39959;BMP280;25639;53.634;9.880;2022-11-28T03:34:38;153337.59;;;3.94
39959;BMP280;25639;53.634;9.880;2022-11-28T03:37:07;153365.53;;;4.05
39959;BMP280;25639;53.634;9.880;2022-11-28T03:39:38;153351.56;;;3.99
39959;BMP280;25639;53.634;9.880;2022-11-28T03:42:19;153352.81;;;4.00
39959;BMP280;25639;53.634;9.880;2022-11-28T03:44:47;153352.81;;;4.00
39959;BMP280;25639;53.634;9.880;2022-11-28T03:47:13;153369.34;;;4.07
39959;BMP280;25639;53.634;9.880;2022-11-28T03:49:40;153356.63;;;4.01
39959;BMP280;25639;53.634;9.880;2022-11-28T03:52:07;153347.75;;;3.98
39959;BMP280;25639;53.634;9.880;2022-11-28T03:57:09;153362.97;;;4.04
39959;BMP280;25639;53.634;9.880;2022-11-28T03:59:40;153364.28;;;4.05
39959;BMP280;25639;53.634;9.880;2022-11-28T04:04:50;153333.78;;;3.92
39959;BMP280;25639;53.634;9.880;2022-11-28T04:07:20;153337.59;;;3.94
39959;BMP280;25639;53.634;9.880;2022-11-28T04:09:48;153341.44;;;3.95
39959;BMP280;25639;53.634;9.880;2022-11-28T04:12:18;153327.41;;;3.90
39959;BMP280;25639;53.634;9.880;2022-11-28T04:14:47;153331.22;;;3.91
39959;BMP280;25639;53.634;9.880;2022-11-28T04:17:25;153312.22;;;3.84
39959;BMP280;25639;53.634;9.880;2022-11-28T04:19:57;153310.94;;;3.83
39959;BMP280;25639;53.634;9.880;2022-11-28T04:22:36;153319.84;;;3.87
39959;BMP280;25639;53.634;9.880;2022-11-28T04:25:04;153326.16;;;3.89
39959;BMP280;25639;53.634;9.880;2022-11-28T04:27:34;153316.03;;;3.85
39959;BMP280;25639;53.634;9.880;2022-11-28T04:30:00;153312.22;;;3.84
39959;BMP280;25639;53.634;9.880;2022-11-28T04:32:26;153313.47;;;3.84
39959;BMP280;25639;53.634;9.880;2022-11-28T04:34:58;153299.50;;;3.78
39959;BMP280;25639;53.634;9.880;2022-11-28T04:37:25;153304.56;;;3.80
39959;BMP280;25639;53.634;9.880;2022-11-28T04:39:51;153316.03;;;3.85
39959;BMP280;25639;53.634;9.880;2022-11-28T04:42:19;153303.31;;;3.80
39959;BMP280;25639;53.634;9.880;2022-11-28T04:47:11;153295.69;;;3.77
39959;BMP280;25639;53.634;9.880;2022-11-28T04:49:36;153276.66;;;3.69
39959;BMP280;25639;53.634;9.880;2022-11-28T04:56:59;153289.38;;;3.74
39959;BMP280;25639;53.634;9.880;2022-11-28T04:59:25;153285.56;;;3.73
39959;BMP280;25639;53.634;9.880;2022-11-28T05:01:52;153281.72;;;3.71
39959;BMP280;25639;53.634;9.880;2022-11-28T05:04:17;153277.91;;;3.70
39959;BMP280;25639;53.634;9.880;2022-11-28T05:06:43;153277.91;;;3.70
39959;BMP280;25639;53.634;9.880;2022-11-28T05:09:09;153277.91;;;3.70
39959;BMP280;25639;53.634;9.880;2022-11-28T05:11:35;153288.09;;;3.74
39959;BMP280;25639;53.634;9.880;2022-11-28T05:14:00;153289.38;;;3.74
39959;BMP280;25639;53.634;9.880;2022-11-28T05:16:25;153299.50;;;3.78
39959;BMP280;25639;53.634;9.880;2022-11-28T05:18:50;153269.03;;;3.66
39959;BMP280;25639;53.634;9.880;2022-11-28T05:21:16;153274.09;;;3.68
39959;BMP280;25639;53.634;9.880;2022-11-28T05:23:41;153281.72;;;3.71
39959;BMP280;25639;53.634;9.880;2022-11-28T05:26:08;153284.28;;;3.72
39959;BMP280;25639;53.634;9.880;2022-11-28T05:28:33;153281.72;;;3.71
39959;BMP280;25639;53.634;9.880;2022-11-28T05:30:59;153297.00;;;3.77
39959;BMP280;25639;53.634;9.880;2022-11-28T05:33:25;153271.59;;;3.67
39959;BMP280;25639;53.634;9.880;2022-11-28T05:35:50;153280.47;;;3.71
39959;BMP280;25639;53.634;9.880;2022-11-28T05:38:15;153270.28;;;3.67
39959;BMP280;25639;53.634;9.880;2022-11-28T05:40:41;153267.78;;;3.66
39959;BMP280;25639;53.634;9.880;2022-11-28T05:43:08;153260.16;;;3.62
39959;BMP280;25639;53.634;9.880;2022-11-28T05:45:34;153260.16;;;3.62
39959;BMP280;25639;53.634;9.880;2022-11-28T05:47:59;153281.72;;;3.71
39959;BMP280;25639;53.634;9.880;2022-11-28T05:50:24;153267.78;;;3.66
39959;BMP280;25639;53.634;9.880;2022-11-28T05:52:49;153276.66;;;3.69
39959;BMP280;25639;53.634;9.880;2022-11-28T05:55:14;153267.78;;;3.66
39959;BMP280;25639;53.634;9.880;2022-11-28T05:57:39;153256.34;;;3.61
39959;BMP280;25639;53.634;9.880;2022-11-28T06:00:05;153269.03;;;3.66
39959;BMP280;25639;53.634;9.880;2022-11-28T06:02:30;153281.72;;;3.71
39959;BMP280;25639;53.634;9.880;2022-11-28T06:04:55;153266.53;;;3.65
39959;BMP280;25639;53.634;9.880;2022-11-28T06:07:20;153253.81;;;3.60
39959;BMP280;25639;53.634;9.880;2022-11-28T06:09:46;153280.47;;;3.71
39959;BMP280;25639;53.634;9.880;2022-11-28T06:12:11;153260.16;;;3.62
39959;BMP280;25639;53.634;9.880;2022-11-28T06:14:36;153266.53;;;3.65
39959;BMP280;25639;53.634;9.880;2022-11-28T06:17:01;153255.09;;;3.60
39959;BMP280;25639;53.634;9.880;2022-11-28T06:19:26;153257.66;;;3.61
39959;BMP280;25639;53.634;9.880;2022-11-28T06:21:52;153265.22;;;3.65
39959;BMP280;25639;53.634;9.880;2022-11-28T06:24:17;153238.56;;;3.54
39959;BMP280;25639;53.634;9.880;2022-11-28T06:26:42;153269.03;;;3.66
39959;BMP280;25639;53.634;9.880;2022-11-28T06:29:07;153244.94;;;3.56
39959;BMP280;25639;53.634;9.880;2022-11-28T06:31:33;153252.53;;;3.59
39959;BMP280;25639;53.634;9.880;2022-11-28T06:33:58;153241.13;;;3.55
39959;BMP280;25639;53.634;9.880;2022-11-28T06:36:23;153250.00;;;3.58
39959;BMP280;25639;53.634;9.880;2022-11-28T06:38:50;153250.00;;;3.58
39959;BMP280;25639;53.634;9.880;2022-11-28T06:41:16;153271.59;;;3.67
39959;BMP280;25639;53.634;9.880;2022-11-28T06:43:42;153252.53;;;3.59
39959;BMP280;25639;53.634;9.880;2022-11-28T06:46:11;153266.53;;;3.65
39959;BMP280;25639;53.634;9.880;2022-11-28T06:48:36;153250.00;;;3.58
39959;BMP280;25639;53.634;9.880;2022-11-28T06:51:03;153258.91;;;3.62
39959;BMP280;25639;53.634;9.880;2022-11-28T06:53:29;153251.28;;;3.59
39959;BMP280;25639;53.634;9.880;2022-11-28T06:55:54;153260.16;;;3.62
39959;BMP280;25639;53.634;9.880;2022-11-28T06:58:19;153248.75;;;3.58
39959;BMP280;25639;53.634;9.880;2022-11-28T07:00:45;153244.94;;;3.56
39959;BMP280;25639;53.634;9.880;2022-11-28T07:03:10;153242.38;;;3.55
39959;BMP280;25639;53.634;9.880;2022-11-28T07:05:37;153246.19;;;3.57
39959;BMP280;25639;53.634;9.880;2022-11-28T07:08:02;153255.09;;;3.60
39959;BMP280;25639;53.634;9.880;2022-11-28T07:10:27;153243.63;;;3.56
39959;BMP280;25639;53.634;9.880;2022-11-28T07:12:53;153239.88;;;3.54
39959;BMP280;25639;53.634;9.880;2022-11-28T07:15:19;153252.53;;;3.59
39959;BMP280;25639;53.634;9.880;2022-11-28T07:17:44;153239.88;;;3.54
39959;BMP280;25639;53.634;9.880;2022-11-28T07:20:09;153269.03;;;3.66
39959;BMP280;25639;53.634;9.880;2022-11-28T07:22:34;153248.75;;;3.58
39959;BMP280;25639;53.634;9.880;2022-11-28T07:25:00;153250.00;;;3.58
39959;BMP280;25639;53.634;9.880;2022-11-28T07:27:25;153251.28;;;3.59
39959;BMP280;25639;53.634;9.880;2022-11-28T07:29:50;153257.66;;;3.61
39959;BMP280;25639;53.634;9.880;2022-11-28T07:32:15;153274.09;;;3.68
39959;BMP280;25639;53.634;9.880;2022-11-28T07:34:41;153244.94;;;3.56
39959;BMP280;25639;53.634;9.880;2022-11-28T07:37:06;153246.19;;;3.57
39959;BMP280;25639;53.634;9.880;2022-11-28T07:39:31;153243.63;;;3.56
39959;BMP280;25639;53.634;9.880;2022-11-28T07:41:57;153247.47;;;3.57
39959;BMP280;25639;53.634;9.880;2022-11-28T07:44:22;153244.94;;;3.56
39959;BMP280;25639;53.634;9.880;2022-11-28T07:46:47;153256.34;;;3.61
39959;BMP280;25639;53.634;9.880;2022-11-28T07:49:12;153239.88;;;3.54
39959;BMP280;25639;53.634;9.880;2022-11-28T07:51:38;153234.75;;;3.52
39959;BMP280;25639;53.634;9.880;2022-11-28T07:54:04;153251.28;;;3.59
39959;BMP280;25639;53.634;9.880;2022-11-28T07:56:30;153236.06;;;3.53
39959;BMP280;25639;53.634;9.880;2022-11-28T07:58:56;153262.72;;;3.63
39959;BMP280;25639;53.634;9.880;2022-11-28T08:01:25;153237.31;;;3.53
39959;BMP280;25639;53.634;9.880;2022-11-28T08:03:52;153272.84;;;3.68
39959;BMP280;25639;53.634;9.880;2022-11-28T08:06:18;153266.53;;;3.65
39959;BMP280;25639;53.634;9.880;2022-11-28T08:08:44;153242.38;;;3.55
39959;BMP280;25639;53.634;9.880;2022-11-28T08:11:11;153241.13;;;3.55
39959;BMP280;25639;53.634;9.880;2022-11-28T08:13:36;153217.00;;;3.45
39959;BMP280;25639;53.634;9.880;2022-11-28T08:16:06;153242.38;;;3.55
39959;BMP280;25639;53.634;9.880;2022-11-28T08:18:32;153243.63;;;3.56
39959;BMP280;25639;53.634;9.880;2022-11-28T08:21:02;153266.53;;;3.65
39959;BMP280;25639;53.634;9.880;2022-11-28T08:23:27;153229.69;;;3.50
39959;BMP280;25639;53.634;9.880;2022-11-28T08:25:52;153253.81;;;3.60
39959;BMP280;25639;53.634;9.880;2022-11-28T08:28:17;153253.81;;;3.60
39959;BMP280;25639;53.634;9.880;2022-11-28T08:30:42;153258.91;;;3.62
39959;BMP280;25639;53.634;9.880;2022-11-28T08:33:07;153231.00;;;3.51
39959;BMP280;25639;53.634;9.880;2022-11-28T08:35:33;153237.31;;;3.53
39959;BMP280;25639;53.634;9.880;2022-11-28T08:37:58;153224.63;;;3.48
39959;BMP280;25639;53.634;9.880;2022-11-28T08:40:23;153247.47;;;3.57
39959;BMP280;25639;53.634;9.880;2022-11-28T08:42:48;153253.81;;;3.60
39959;BMP280;25639;53.634;9.880;2022-11-28T08:45:13;153263.97;;;3.64
39959;BMP280;25639;53.634;9.880;2022-11-28T08:47:40;153255.09;;;3.60
39959;BMP280;25639;53.634;9.880;2022-11-28T08:50:05;153272.84;;;3.68
39959;BMP280;25639;53.634;9.880;2022-11-28T08:52:31;153270.28;;;3.67
39959;BMP280;25639;53.634;9.880;2022-11-28T08:54:56;153279.22;;;3.70
39959;BMP280;25639;53.634;9.880;2022-11-28T08:57:22;153263.97;;;3.64
39959;BMP280;25639;53.634;9.880;2022-11-28T08:59:47;153269.03;;;3.66
39959;BMP280;25639;53.634;9.880;2022-11-28T09:02:12;153269.03;;;3.66
39959;BMP280;25639;53.634;9.880;2022-11-28T09:04:37;153266.53;;;3.65
39959;BMP280;25639;53.634;9.880;2022-11-28T09:07:03;153261.41;;;3.63
39959;BMP280;25639;53.634;9.880;2022-11-28T09:09:28;153261.41;;;3.63
39959;BMP280;25639;53.634;9.880;2022-11-28T09:11:54;153243.63;;;3.56
39959;BMP280;25639;53.634;9.880;2022-11-28T09:14:19;153236.06;;;3.53
39959;BMP280;25639;53.634;9.880;2022-11-28T09:16:44;153229.69;;;3.50
39959;BMP280;25639;53.634;9.880;2022-11-28T09:19:09;153253.81;;;3.60
39959;BMP280;25639;53.634;9.880;2022-11-28T09:21:35;153277.91;;;3.70
39959;BMP280;25639;53.634;9.880;2022-11-28T09:24:00;153260.16;;;3.62
39959;BMP280;25639;53.634;9.880;2022-11-28T09:26:25;153243.63;;;3.56
39959;BMP280;25639;53.634;9.880;2022-11-28T09:28:51;153262.72;;;3.63
39959;BMP280;25639;53.634;9.880;2022-11-28T09:31:18;153261.41;;;3.63
39959;BMP280;25639;53.634;9.880;2022-11-28T09:33:44;153253.81;;;3.60
39959;BMP280;25639;53.634;9.880;2022-11-28T09:36:11;153229.69;;;3.50
39959;BMP280;25639;53.634;9.880;2022-11-28T09:38:37;153209.41;;;3.42
39959;BMP280;25639;53.634;9.880;2022-11-28T09:41:02;153203.03;;;3.39
39959;BMP280;25639;53.634;9.880;2022-11-28T09:43:30;153232.25;;;3.51
39959;BMP280;25639;53.634;9.880;2022-11-28T09:45:56;153232.25;;;3.51
39959;BMP280;25639;53.634;9.880;2022-11-28T09:50:47;153218.28;;;3.46
39959;BMP280;25639;53.634;9.880;2022-11-28T09:58:15;153204.34;;;3.40
39959;BMP280;25639;53.634;9.880;2022-11-28T10:03:33;153204.34;;;3.40
39959;BMP280;25639;53.634;9.880;2022-11-28T10:08:35;153228.44;;;3.50
39959;BMP280;25639;53.634;9.880;2022-11-28T10:19:15;153243.63;;;3.56
39959;BMP280;25639;53.634;9.880;2022-11-28T10:21:50;153274.09;;;3.68
39959;BMP280;25639;53.634;9.880;2022-11-28T10:24:27;153260.16;;;3.62
39959;BMP280;25639;53.634;9.880;2022-11-28T10:26:56;153257.66;;;3.61
39959;BMP280;25639;53.634;9.880;2022-11-28T10:31:51;153272.84;;;3.68
39959;BMP280;25639;53.634;9.880;2022-11-28T10:34:29;153256.34;;;3.61
39959;BMP280;25639;53.634;9.880;2022-11-28T10:39:41;153267.78;;;3.66
39959;BMP280;25639;53.634;9.880;2022-11-28T10:44:41;153257.66;;;3.61
39959;BMP280;25639;53.634;9.880;2022-11-28T10:47:12;153260.16;;;3.62
39959;BMP280;25639;53.634;9.880;2022-11-28T11:02:25;153276.66;;;3.69
39959;BMP280;25639;53.634;9.880;2022-11-28T11:04:51;153298.25;;;3.78
39959;BMP280;25639;53.634;9.880;2022-11-28T11:07:18;153279.22;;;3.70
39959;BMP280;25639;53.634;9.880;2022-11-28T11:09:48;153295.69;;;3.77
39959;BMP280;25639;53.634;9.880;2022-11-28T11:12:17;153284.28;;;3.72
39959;BMP280;25639;53.634;9.880;2022-11-28T11:14:44;153285.56;;;3.73
39959;BMP280;25639;53.634;9.880;2022-11-28T11:19:50;153271.59;;;3.67
39959;BMP280;25639;53.634;9.880;2022-11-28T11:22:22;153256.34;;;3.61
39959;BMP280;25639;53.634;9.880;2022-11-28T11:27:34;153265.22;;;3.65
39959;BMP280;25639;53.634;9.880;2022-11-28T11:30:00;153248.75;;;3.58
39959;BMP280;25639;53.634;9.880;2022-11-28T11:32:39;153224.63;;;3.48
39959;BMP280;25639;53.634;9.880;2022-11-28T11:35:04;153258.91;;;3.62
39959;BMP280;25639;53.634;9.880;2022-11-28T11:37:36;153234.75;;;3.52
39959;BMP280;25639;53.634;9.880;2022-11-28T11:40:03;153217.00;;;3.45
39959;BMP280;25639;53.634;9.880;2022-11-28T11:42:41;153196.72;;;3.37
39959;BMP280;25639;53.634;9.880;2022-11-28T11:45:31;153189.09;;;3.34
39959;BMP280;25639;53.634;9.880;2022-11-28T11:47:57;153173.88;;;3.28
39959;BMP280;25639;53.634;9.880;2022-11-28T11:50:23;153204.34;;;3.40
39959;BMP280;25639;53.634;9.880;2022-11-28T11:52:59;153200.53;;;3.38
39959;BMP280;25639;53.634;9.880;2022-11-28T11:55:24;153173.88;;;3.28
39959;BMP280;25639;53.634;9.880;2022-11-28T11:57:52;153172.56;;;3.27
39959;BMP280;25639;53.634;9.880;2022-11-28T12:00:19;153178.94;;;3.30
39959;BMP280;25639;53.634;9.880;2022-11-28T12:02:55;153163.69;;;3.23
39959;BMP280;25639;53.634;9.880;2022-11-28T12:05:22;153172.56;;;3.27
39959;BMP280;25639;53.634;9.880;2022-11-28T12:10:17;153197.97;;;3.37
39959;BMP280;25639;53.634;9.880;2022-11-28T12:12:45;153189.09;;;3.34
39959;BMP280;25639;53.634;9.880;2022-11-28T12:18:00;153205.59;;;3.40
39959;BMP280;25639;53.634;9.880;2022-11-28T12:20:32;153168.81;;;3.26
39959;BMP280;25639;53.634;9.880;2022-11-28T12:23:03;153167.50;;;3.25
39959;BMP280;25639;53.634;9.880;2022-11-28T12:25:44;153171.31;;;3.27
39959;BMP280;25639;53.634;9.880;2022-11-28T12:28:18;153175.13;;;3.28
39959;BMP280;25639;53.634;9.880;2022-11-28T12:30:52;153151.06;;;3.18
39959;BMP280;25639;53.634;9.880;2022-11-28T12:33:32;153158.63;;;3.21
39959;BMP280;25639;53.634;9.880;2022-11-28T12:36:09;153177.69;;;3.29
39959;BMP280;25639;53.634;9.880;2022-11-28T12:44:03;153178.94;;;3.30
39959;BMP280;25639;53.634;9.880;2022-11-28T12:46:36;153180.22;;;3.30
39959;BMP280;25639;53.634;9.880;2022-11-28T12:49:18;153158.63;;;3.21
39959;BMP280;25639;53.634;9.880;2022-11-28T12:51:52;153162.44;;;3.23
39959;BMP280;25639;53.634;9.880;2022-11-28T12:54:43;153191.66;;;3.35
39959;BMP280;25639;53.634;9.880;2022-11-28T12:57:21;153162.44;;;3.23
39959;BMP280;25639;53.634;9.880;2022-11-28T12:59:53;153172.56;;;3.27
39959;BMP280;25639;53.634;9.880;2022-11-28T13:07:19;153168.81;;;3.26
39959;BMP280;25639;53.634;9.880;2022-11-28T13:12:17;153143.41;;;3.15
39959;BMP280;25639;53.634;9.880;2022-11-28T13:14:53;153152.31;;;3.19
39959;BMP280;25639;53.634;9.880;2022-11-28T13:17:32;153151.06;;;3.18
39959;BMP280;25639;53.634;9.880;2022-11-28T13:20:17;153133.25;;;3.11
39959;BMP280;25639;53.634;9.880;2022-11-28T13:25:30;153163.69;;;3.23
39959;BMP280;25639;53.634;9.880;2022-11-28T13:28:40;153158.63;;;3.21
39959;BMP280;25639;53.634;9.880;2022-11-28T13:30:56;153144.69;;;3.16
39959;BMP280;25639;53.634;9.880;2022-11-28T13:33:36;153148.50;;;3.17
39959;BMP280;25639;53.634;9.880;2022-11-28T13:36:03;153147.25;;;3.17
39959;BMP280;25639;53.634;9.880;2022-11-28T13:38:43;153135.78;;;3.12
39959;BMP280;25639;53.634;9.880;2022-11-28T13:41:18;153130.72;;;3.10
39959;BMP280;25639;53.634;9.880;2022-11-28T13:43:47;153138.34;;;3.13
39959;BMP280;25639;53.634;9.880;2022-11-28T13:46:16;153140.88;;;3.14
39959;BMP280;25639;53.634;9.880;2022-11-28T13:53:40;153135.78;;;3.12
39959;BMP280;25639;53.634;9.880;2022-11-28T13:58:51;153144.69;;;3.16
39959;BMP280;25639;53.634;9.880;2022-11-28T14:01:23;153121.84;;;3.07
39959;BMP280;25639;53.634;9.880;2022-11-28T14:06:22;153106.59;;;3.00
39959;BMP280;25639;53.634;9.880;2022-11-28T14:08:58;153091.41;;;2.94
39959;BMP280;25639;53.634;9.880;2022-11-28T14:11:45;153073.63;;;2.87
39959;BMP280;25639;53.634;9.880;2022-11-28T14:16:56;153077.44;;;2.89
39959;BMP280;25639;53.634;9.880;2022-11-28T14:27:33;153064.75;;;2.83
39959;BMP280;25639;53.634;9.880;2022-11-28T14:30:00;153057.13;;;2.80
39959;BMP280;25639;53.634;9.880;2022-11-28T14:34:50;153052.06;;;2.78
39959;BMP280;25639;53.634;9.880;2022-11-28T14:39:51;153049.56;;;2.77
39959;BMP280;25639;53.634;9.880;2022-11-28T14:49:39;153059.69;;;2.81
39959;BMP280;25639;53.634;9.880;2022-11-28T14:52:06;153072.38;;;2.86
39959;BMP280;25639;53.634;9.880;2022-11-28T14:54:35;153054.63;;;2.79
39959;BMP280;25639;53.634;9.880;2022-11-28T14:57:01;153047.00;;;2.76
39959;BMP280;25639;53.634;9.880;2022-11-28T14:59:30;153059.69;;;2.81
39959;BMP280;25639;53.634;9.880;2022-11-28T15:06:53;153049.56;;;2.77
39959;BMP280;25639;53.634;9.880;2022-11-28T15:09:20;153043.19;;;2.75
39959;BMP280;25639;53.634;9.880;2022-11-28T15:14:32;153077.44;;;2.89
39959;BMP280;25639;53.634;9.880;2022-11-28T15:17:00;153083.78;;;2.91
39959;BMP280;25639;53.634;9.880;2022-11-28T15:19:31;153076.19;;;2.88
39959;BMP280;25639;53.634;9.880;2022-11-28T15:21:58;153083.78;;;2.91
39959;BMP280;25639;53.634;9.880;2022-11-28T15:24:25;153068.56;;;2.85
39959;BMP280;25639;53.634;9.880;2022-11-28T15:27:14;153071.06;;;2.86
39959;BMP280;25639;53.634;9.880;2022-11-28T15:29:39;153053.31;;;2.79
39959;BMP280;25639;53.634;9.880;2022-11-28T15:32:04;153058.44;;;2.81
39959;BMP280;25639;53.634;9.880;2022-11-28T15:34:31;153048.25;;;2.77
39959;BMP280;25639;53.634;9.880;2022-11-28T15:36:57;153044.44;;;2.75
39959;BMP280;25639;53.634;9.880;2022-11-28T15:39:31;153064.75;;;2.83
39959;BMP280;25639;53.634;9.880;2022-11-28T15:41:59;153035.56;;;2.72
39959;BMP280;25639;53.634;9.880;2022-11-28T15:44:26;153045.75;;;2.76
39959;BMP280;25639;53.634;9.880;2022-11-28T15:46:51;153038.13;;;2.73
39959;BMP280;25639;53.634;9.880;2022-11-28T15:49:31;153045.75;;;2.76
39959;BMP280;25639;53.634;9.880;2022-11-28T15:51:58;153047.00;;;2.76
39959;BMP280;25639;53.634;9.880;2022-11-28T15:56:58;153052.06;;;2.78
39959;BMP280;25639;53.634;9.880;2022-11-28T15:59:23;153052.06;;;2.78
39959;BMP280;25639;53.634;9.880;2022-11-28T16:01:49;153049.56;;;2.77
39959;BMP280;25639;53.634;9.880;2022-11-28T16:04:14;153050.81;;;2.78
39959;BMP280;25639;53.634;9.880;2022-11-28T16:06:41;153066.00;;;2.84
39959;BMP280;25639;53.634;9.880;2022-11-28T16:09:22;153073.63;;;2.87
39959;BMP280;25639;53.634;9.880;2022-11-28T16:11:49;153054.63;;;2.79
39959;BMP280;25639;53.634;9.880;2022-11-28T16:14:29;153060.94;;;2.82
39959;BMP280;25639;53.634;9.880;2022-11-28T16:16:55;153069.81;;;2.85
39959;BMP280;25639;53.634;9.880;2022-11-28T16:19:28;153074.88;;;2.88
39959;BMP280;25639;53.634;9.880;2022-11-28T16:21:56;153085.06;;;2.92
39959;BMP280;25639;53.634;9.880;2022-11-28T16:24:27;153091.41;;;2.94
39959;BMP280;25639;53.634;9.880;2022-11-28T16:26:57;153076.19;;;2.88
39959;BMP280;25639;53.634;9.880;2022-11-28T16:29:24;153102.84;;;2.99
39959;BMP280;25639;53.634;9.880;2022-11-28T16:31:50;153082.50;;;2.91
39959;BMP280;25639;53.634;9.880;2022-11-28T16:34:15;153085.06;;;2.92
39959;BMP280;25639;53.634;9.880;2022-11-28T16:36:40;153111.72;;;3.02
39959;BMP280;25639;53.634;9.880;2022-11-28T16:39:11;153105.34;;;3.00
39959;BMP280;25639;53.634;9.880;2022-11-28T16:41:49;153076.19;;;2.88
39959;BMP280;25639;53.634;9.880;2022-11-28T16:44:17;153092.66;;;2.95
39959;BMP280;25639;53.634;9.880;2022-11-28T16:46:50;153060.94;;;2.82
39959;BMP280;25639;53.634;9.880;2022-11-28T16:49:36;153076.19;;;2.88
39959;BMP280;25639;53.634;9.880;2022-11-28T16:52:42;153078.69;;;2.89